createdAt,value
2023-05-12T00:04:40.589Z,99292.44
2023-05-12T00:10:42.694Z,99295.72
2023-05-12T00:16:44.731Z,99294.72
2023-05-12T00:22:46.698Z,99301.09
2023-05-12T00:28:48.797Z,99297.00
2023-05-12T00:34:50.976Z,99298.03
2023-05-12T00:40:52.864Z,99294.94
2023-05-12T00:46:55.337Z,99297.19
2023-05-12T00:52:58.457Z,99285.63
2023-05-12T00:59:00.337Z,99293.28
2023-05-12T01:05:03.167Z,99286.47
2023-05-12T01:11:05.157Z,99295.34
2023-05-12T01:17:15.785Z,99290.19
2023-05-12T01:23:20.133Z,99296.78
2023-05-12T01:29:23.386Z,99300.91
2023-05-12T01:35:25.450Z,99296.41
2023-05-12T01:41:27.330Z,99301.75
2023-05-12T01:47:29.275Z,99303.41
2023-05-12T01:53:31.222Z,99305.25
2023-05-12T01:59:33.128Z,99303.41
2023-05-12T02:05:35.547Z,99305.66
2023-05-12T02:11:37.489Z,99309.19
2023-05-12T02:17:39.470Z,99313.13
2023-05-12T02:23:41.541Z,99313.53
2023-05-12T02:29:43.440Z,99315.41
2023-05-12T02:35:45.786Z,99310.84
2023-05-12T02:41:48.018Z,99312.09
2023-05-12T02:47:49.969Z,99305.50
2023-05-12T02:53:52.301Z,99308.34
2023-05-12T02:59:54.189Z,99320.59
2023-05-12T03:05:56.214Z,99322.84
2023-05-12T03:11:58.155Z,99289.56
2023-05-12T03:18:00.247Z,99313.09
2023-05-12T03:24:02.212Z,99320.59
2023-05-12T03:30:05.678Z,99329.66
2023-05-12T03:36:07.996Z,99325.13
2023-05-12T03:42:09.879Z,99333.97
2023-05-12T03:48:11.816Z,99313.75
2023-05-12T03:54:13.767Z,99319.34
2023-05-12T04:00:18.446Z,99307.75
2023-05-12T04:06:20.649Z,99316.84
2023-05-12T04:12:22.619Z,99316.66
2023-05-12T04:18:26.362Z,99324.72
2023-05-12T04:24:28.378Z,99318.28
2023-05-12T04:30:30.291Z,99329.44
2023-05-12T04:36:33.625Z,99328.78
2023-05-12T04:42:35.831Z,99337.47
2023-05-12T04:48:41.900Z,99345.72
2023-05-12T04:54:43.823Z,99343.22
2023-05-12T05:00:45.900Z,99344.47
2023-05-12T05:06:47.794Z,99343.31
2023-05-12T05:12:49.701Z,99361.06
2023-05-12T05:18:52.096Z,99368.91
2023-05-12T05:24:54.036Z,99364.22
2023-05-12T05:30:55.988Z,99364.09
2023-05-12T05:36:57.885Z,99365.94
2023-05-12T05:42:59.927Z,99376.41
2023-05-12T05:49:01.819Z,99369.03
2023-05-12T05:55:03.929Z,99369.41
2023-05-12T06:01:06.011Z,99379.19
2023-05-12T06:07:07.957Z,99394.56
2023-05-12T06:13:10.044Z,99389.47
2023-05-12T06:19:12.639Z,99403.25
2023-05-12T06:25:14.821Z,99395.50
2023-05-12T06:31:17.031Z,99398.19
2023-05-12T06:37:18.991Z,99412.69
2023-05-12T06:43:20.904Z,99411.66
2023-05-12T06:49:23.098Z,99410.25
2023-05-12T06:55:25.055Z,99405.00
2023-05-12T07:01:31.789Z,99405.59
2023-05-12T07:24:00.937Z,99408.44
2023-05-12T08:47:40.188Z,99398.59
2023-05-12T10:47:52.142Z,99400.38
2023-05-12T11:01:40.263Z,99401.03
2023-05-12T11:54:31.193Z,99407.06
2023-05-12T12:01:36.170Z,99413.22
2023-05-12T12:38:49.231Z,99441.47
2023-05-12T12:53:39.844Z,99429.00
2023-05-12T13:06:47.763Z,99427.09
2023-05-12T13:20:38.134Z,99432.69
2023-05-12T13:26:43.421Z,99442.28
2023-05-12T14:18:55.942Z,99409.72
2023-05-12T14:25:56.842Z,99409.44
2023-05-12T14:32:18.436Z,99419.53
2023-05-12T14:38:20.949Z,99412.88
2023-05-12T14:44:29.145Z,99420.28
2023-05-12T14:58:59.747Z,99407.34
2023-05-12T15:13:21.293Z,99417.91
2023-05-12T15:19:38.163Z,99418.34
2023-05-12T15:25:41.882Z,99414.38
2023-05-12T15:54:04.635Z,99416.19
2023-05-12T16:00:38.721Z,99420.44
2023-05-12T16:07:06.226Z,99417.97
2023-05-12T16:14:09.026Z,99409.75
2023-05-12T16:20:15.543Z,99409.94
2023-05-12T16:26:44.788Z,99406.06
2023-05-12T16:32:50.876Z,99396.84
2023-05-12T16:39:22.270Z,99404.75
2023-05-12T16:46:33.531Z,99399.66
2023-05-12T16:52:43.218Z,99404.03
2023-05-12T16:58:54.584Z,99417.34
2023-05-12T17:05:13.678Z,99434.84
2023-05-12T17:12:11.698Z,99430.22
2023-05-12T17:19:13.598Z,99428.16
2023-05-12T17:25:37.944Z,99429.22
2023-05-12T17:32:01.081Z,99433.31
2023-05-12T17:38:09.434Z,99447.16
2023-05-12T17:44:15.111Z,99435.78
2023-05-12T17:50:30.947Z,99443.94
2023-05-12T17:56:33.556Z,99438.34
2023-05-12T18:03:24.649Z,99452.59
2023-05-12T18:10:14.483Z,99458.84
2023-05-12T18:16:27.986Z,99459.81
2023-05-12T18:31:00.302Z,99482.00
2023-05-12T18:37:17.828Z,99470.09
2023-05-12T18:52:05.425Z,99478.13
2023-05-12T18:58:29.472Z,99482.41
2023-05-12T19:04:31.372Z,99491.63
2023-05-12T19:10:33.269Z,99501.06
2023-05-12T19:16:36.302Z,99511.91
2023-05-12T19:22:38.379Z,99517.63
2023-05-12T19:28:40.302Z,99517.19
2023-05-12T19:34:42.241Z,99518.41
2023-05-12T19:40:44.287Z,99520.66
2023-05-12T19:46:47.042Z,99518.19
2023-05-12T19:52:49.018Z,99525.25
2023-05-12T19:58:52.277Z,99532.09
2023-05-12T20:04:54.528Z,99529.09
2023-05-12T20:10:56.528Z,99535.63
2023-05-12T20:16:59.062Z,99541.47
2023-05-12T20:23:01.311Z,99544.53
2023-05-12T20:29:03.275Z,99549.38
2023-05-12T20:35:07.006Z,99551.00
2023-05-12T20:41:08.972Z,99552.28
2023-05-12T20:47:11.110Z,99553.63
2023-05-12T20:53:13.047Z,99553.19
2023-05-12T20:59:15.120Z,99556.81
2023-05-12T21:05:17.003Z,99559.06
2023-05-12T21:11:19.418Z,99554.84
2023-05-12T21:17:21.766Z,99557.72
2023-05-12T21:23:23.724Z,99557.94
2023-05-12T21:29:25.655Z,99559.44
2023-05-12T21:35:27.620Z,99557.19
2023-05-12T21:41:30.164Z,99565.28
2023-05-12T21:47:32.088Z,99556.66
2023-05-12T21:53:34.041Z,99561.56
2023-05-12T21:59:35.949Z,99558.16
2023-05-12T22:05:37.905Z,99555.03
2023-05-12T22:11:39.789Z,99556.75
2023-05-12T22:17:41.843Z,99558.25
2023-05-12T22:23:43.812Z,99557.28
2023-05-12T22:29:45.777Z,99558.06
2023-05-12T22:35:47.671Z,99562.13
2023-05-12T22:41:49.559Z,99566.34
2023-05-12T22:47:51.450Z,99564.63
2023-05-12T22:53:53.359Z,99565.81
2023-05-12T22:59:55.450Z,99570.47
2023-05-12T23:05:57.316Z,99571.13
2023-05-12T23:11:59.194Z,99567.22
2023-05-12T23:18:01.230Z,99570.66
2023-05-12T23:24:03.270Z,99569.84
2023-05-12T23:30:06.519Z,99569.97
2023-05-12T23:36:08.999Z,99577.13
2023-05-12T23:42:10.921Z,99571.63
2023-05-12T23:48:12.886Z,99572.41
2023-05-12T23:54:14.824Z,99579.63
